Time;durP1;ratioP1;P1;durP2;ratioP2;P2;SDS_P1;SDS_P2;PMS_P1;PMS_P2;Temp;Humidity;BMP_temperature;BMP_pressure;BME280_temperature;BME280_humidity;BME280_pressure;Samples;Min_cycle;Max_cycle;Signal;HPM_P1;HPM_P2
2021/05/13 00:00:41;;;;;;;24.77;12.95;;;10.70;99.90;;;;;;5005783;28;20208;-65
2021/05/13 00:03:07;;;;;;;25.20;11.98;;;10.70;99.90;;;;;;5005937;28;20156;-65
2021/05/13 00:05:33;;;;;;;23.88;12.60;;;10.70;99.90;;;;;;5008308;28;20064;-65
2021/05/13 00:07:59;;;;;;;28.98;13.30;;;10.70;99.90;;;;;;5006294;28;20777;-65
2021/05/13 00:10:26;;;;;;;22.63;13.15;;;10.60;99.90;;;;;;5006193;28;20056;-66
2021/05/13 00:12:58;;;;;;;21.05;10.82;;;10.70;99.90;;;;;;5006490;28;20034;-65
2021/05/13 00:15:26;;;;;;;26.77;13.68;;;10.60;99.90;;;;;;5008675;28;20041;-66
2021/05/13 00:17:53;;;;;;;25.05;11.88;;;10.60;99.90;;;;;;5007436;28;20789;-65
2021/05/13 00:20:22;;;;;;;25.88;12.63;;;10.70;99.90;;;;;;5008377;28;20292;-66
2021/05/13 00:22:49;;;;;;;23.15;12.50;;;10.60;99.90;;;;;;5004378;28;20254;-65
2021/05/13 00:25:16;;;;;;;27.23;13.38;;;10.60;99.90;;;;;;5006783;28;20146;-65
2021/05/13 00:27:42;;;;;;;25.65;13.10;;;10.60;99.90;;;;;;5007073;28;20438;-70
2021/05/13 00:30:08;;;;;;;25.85;12.52;;;10.60;99.90;;;;;;5007017;28;20438;-65
2021/05/13 00:32:37;;;;;;;23.52;12.68;;;10.60;99.90;;;;;;5007792;28;20133;-65
2021/05/13 00:35:09;;;;;;;23.45;12.27;;;10.60;99.90;;;;;;5006659;28;20053;-65
2021/05/13 00:37:35;;;;;;;23.23;12.38;;;10.50;99.90;;;;;;5006944;28;20068;-65
2021/05/13 00:40:02;;;;;;;26.50;13.82;;;10.50;99.90;;;;;;5007397;28;20041;-66
2021/05/13 00:42:28;;;;;;;27.00;13.98;;;10.50;99.90;;;;;;5005227;28;20029;-65
2021/05/13 00:44:54;;;;;;;22.77;13.88;;;10.60;99.90;;;;;;5006698;28;20072;-65
2021/05/13 00:47:21;;;;;;;28.58;14.57;;;10.60;99.90;;;;;;5007168;28;20079;-65
2021/05/13 00:49:47;;;;;;;22.33;12.38;;;10.60;99.90;;;;;;5007371;28;20057;-65
2021/05/13 00:52:13;;;;;;;25.20;12.98;;;10.60;99.90;;;;;;5006949;28;20038;-65
2021/05/13 00:54:41;;;;;;;20.15;12.35;;;10.60;99.90;;;;;;5006270;28;20049;-65
2021/05/13 00:57:07;;;;;;;23.45;12.38;;;10.60;99.90;;;;;;5006341;28;20041;-65
2021/05/13 00:59:36;;;;;;;19.80;11.40;;;10.50;99.90;;;;;;5006200;28;20196;-65
2021/05/13 01:02:02;;;;;;;18.13;11.18;;;10.50;99.90;;;;;;5005246;28;20030;-65
2021/05/13 01:04:28;;;;;;;22.27;11.05;;;10.40;99.90;;;;;;5006863;28;20073;-65
2021/05/13 01:06:55;;;;;;;21.83;12.77;;;10.40;99.90;;;;;;5005534;28;20025;-65
2021/05/13 01:09:24;;;;;;;23.45;12.40;;;10.50;99.90;;;;;;5006330;28;20112;-65
2021/05/13 01:12:02;;;;;;;23.60;13.15;;;10.40;99.90;;;;;;5006371;28;20925;-65
2021/05/13 01:17:16;;;;;;;22.23;13.85;;;10.40;99.90;;;;;;5005585;28;20025;-65
2021/05/13 01:19:49;;;;;;;21.98;12.75;;;10.40;99.90;;;;;;5007817;28;20037;-66
2021/05/13 01:22:16;;;;;;;25.73;14.23;;;10.40;99.90;;;;;;5004585;28;20475;-65
2021/05/13 01:24:43;;;;;;;20.58;12.43;;;10.40;99.90;;;;;;5006763;28;20042;-66
2021/05/13 01:27:09;;;;;;;20.17;12.77;;;10.40;99.90;;;;;;5006051;28;20152;-65
2021/05/13 01:29:35;;;;;;;28.02;13.25;;;10.40;99.90;;;;;;5005895;28;20041;-65
2021/05/13 01:32:02;;;;;;;20.73;12.77;;;10.30;99.90;;;;;;5006670;28;20021;-65
2021/05/13 01:34:29;;;;;;;19.85;12.15;;;10.30;99.90;;;;;;5005142;28;20071;-66
2021/05/13 01:36:55;;;;;;;23.70;12.73;;;10.30;99.90;;;;;;5005057;28;20029;-65
2021/05/13 01:39:21;;;;;;;22.70;13.10;;;10.30;99.90;;;;;;5006820;28;20547;-65
2021/05/13 01:41:47;;;;;;;23.38;14.07;;;10.30;99.90;;;;;;5004445;28;20047;-65
2021/05/13 01:44:13;;;;;;;22.50;13.98;;;10.30;99.90;;;;;;5006428;28;20041;-65
2021/05/13 01:46:39;;;;;;;27.08;14.27;;;10.30;99.90;;;;;;5006451;28;20033;-66
2021/05/13 01:49:06;;;;;;;25.08;13.70;;;10.30;99.90;;;;;;5003843;28;20611;-65
2021/05/13 01:51:32;;;;;;;22.77;12.80;;;10.30;99.90;;;;;;5006284;28;20034;-65
2021/05/13 01:53:58;;;;;;;26.42;13.85;;;10.30;99.90;;;;;;5003632;28;20503;-66
2021/05/13 01:56:24;;;;;;;22.35;13.10;;;10.30;99.90;;;;;;5005796;28;20029;-65
2021/05/13 01:58:50;;;;;;;26.48;14.20;;;10.30;99.90;;;;;;5005174;28;20485;-65
2021/05/13 02:01:16;;;;;;;22.33;13.18;;;10.30;99.90;;;;;;5001652;28;20486;-66
2021/05/13 02:03:44;;;;;;;21.17;12.15;;;10.30;99.90;;;;;;5006465;28;20144;-65
2021/05/13 02:06:12;;;;;;;18.92;12.25;;;10.30;99.90;;;;;;5003869;28;20388;-65
2021/05/13 02:08:37;;;;;;;19.65;12.10;;;10.30;99.90;;;;;;5005718;28;20029;-65
2021/05/13 02:11:04;;;;;;;23.35;11.68;;;10.30;99.90;;;;;;5004887;28;20548;-65
2021/05/13 02:13:30;;;;;;;19.38;11.95;;;10.30;99.90;;;;;;5001684;28;20067;-65
2021/05/13 02:15:56;;;;;;;20.33;11.65;;;10.20;99.90;;;;;;5006142;28;20034;-65
2021/05/13 02:18:22;;;;;;;21.20;12.63;;;10.30;99.90;;;;;;5005597;28;20038;-65
2021/05/13 02:20:49;;;;;;;21.23;12.82;;;10.20;99.90;;;;;;5004375;28;20037;-66
2021/05/13 02:23:15;;;;;;;17.83;12.20;;;10.20;99.90;;;;;;5005130;28;20382;-65
2021/05/13 02:25:44;;;;;;;20.38;12.82;;;10.30;99.90;;;;;;5006082;28;20128;-64
2021/05/13 02:28:10;;;;;;;16.90;11.07;;;10.20;99.90;;;;;;5004582;28;20548;-65
2021/05/13 02:30:36;;;;;;;24.20;12.20;;;10.20;99.90;;;;;;5005586;28;20077;-65
2021/05/13 02:33:01;;;;;;;21.20;13.07;;;10.10;99.90;;;;;;5005216;28;20339;-64
2021/05/13 02:35:27;;;;;;;20.10;13.40;;;10.20;99.90;;;;;;5006800;28;20069;-65
2021/05/13 02:37:53;;;;;;;24.08;11.82;;;10.10;99.90;;;;;;5003807;28;20033;-65
2021/05/13 02:40:19;;;;;;;20.50;11.95;;;10.10;99.90;;;;;;5004207;28;20045;-65
2021/05/13 02:42:45;;;;;;;20.67;12.18;;;10.10;99.90;;;;;;5005648;28;20033;-66
2021/05/13 02:45:12;;;;;;;23.38;12.20;;;10.10;99.90;;;;;;5004142;28;20033;-65
2021/05/13 02:47:38;;;;;;;24.42;12.82;;;10.00;99.90;;;;;;5004077;28;20127;-65
2021/05/13 02:50:06;;;;;;;21.88;13.77;;;10.10;99.90;;;;;;5005678;28;20034;-65
2021/05/13 02:52:32;;;;;;;21.55;13.30;;;10.10;99.90;;;;;;5003471;28;20038;-65
2021/05/13 02:54:58;;;;;;;23.88;13.20;;;10.10;99.90;;;;;;5004703;28;20598;-65
2021/05/13 02:57:24;;;;;;;21.08;12.18;;;10.00;99.90;;;;;;5003804;28;20029;-65
2021/05/13 02:59:55;;;;;;;23.42;12.48;;;10.10;99.90;;;;;;5004883;28;20034;-65
2021/05/13 03:02:21;;;;;;;21.95;12.35;;;10.10;99.90;;;;;;5002827;28;20405;-65
2021/05/13 03:04:47;;;;;;;25.83;13.20;;;10.10;99.90;;;;;;5006183;28;20072;-65
2021/05/13 03:07:14;;;;;;;36.97;13.23;;;10.10;99.90;;;;;;5004072;28;20444;-66
2021/05/13 03:09:49;;;;;;;24.70;13.00;;;10.10;99.90;;;;;;5005863;28;20567;-65
2021/05/13 03:12:15;;;;;;;20.52;12.30;;;10.10;99.90;;;;;;5004503;28;20026;-66
2021/05/13 03:14:41;;;;;;;21.77;12.68;;;10.10;99.90;;;;;;5003331;28;20131;-65
2021/05/13 03:17:07;;;;;;;23.90;14.02;;;10.10;99.90;;;;;;5004441;28;20108;-66
2021/05/13 03:19:44;;;;;;;23.20;12.95;;;10.20;99.90;;;;;;5005223;28;20679;-65
2021/05/13 03:22:15;;;;;;;26.05;14.07;;;10.20;99.90;;;;;;5006357;28;20079;-65
2021/05/13 03:27:26;;;;;;;26.60;14.23;;;10.20;99.90;;;;;;5004319;28;20486;-65
2021/05/13 03:29:53;;;;;;;30.83;15.13;;;10.20;99.90;;;;;;5005966;28;20047;-65
2021/05/13 03:32:19;;;;;;;26.85;14.35;;;10.20;99.90;;;;;;5002998;28;20030;-66
2021/05/13 03:34:45;;;;;;;27.08;13.88;;;10.20;99.90;;;;;;5008799;28;20025;-65
2021/05/13 03:37:11;;;;;;;32.22;15.35;;;10.20;99.90;;;;;;5007035;28;20037;-66
2021/05/13 03:39:38;;;;;;;28.42;13.82;;;10.10;99.90;;;;;;5007095;28;20033;-65
2021/05/13 03:42:04;;;;;;;32.60;15.48;;;10.10;99.90;;;;;;5008571;28;20033;-65
2021/05/13 03:44:30;;;;;;;32.30;15.63;;;10.10;99.90;;;;;;5008382;28;20025;-65
2021/05/13 03:46:56;;;;;;;38.17;17.52;;;10.20;99.90;;;;;;5005566;28;20211;-65
2021/05/13 03:49:22;;;;;;;30.13;16.58;;;10.20;99.90;;;;;;5007967;28;20831;-65
2021/05/13 03:51:48;;;;;;;32.13;16.38;;;10.30;99.90;;;;;;5005994;28;20057;-65
2021/05/13 03:54:14;;;;;;;32.03;16.08;;;10.20;99.90;;;;;;5008857;28;20041;-66
2021/05/13 03:56:40;;;;;;;33.47;16.95;;;10.30;99.90;;;;;;5008228;28;20393;-66
2021/05/13 03:59:12;;;;;;;38.85;18.08;;;10.20;99.90;;;;;;5009518;28;20382;-66
2021/05/13 04:01:51;;;;;;;34.83;17.65;;;10.20;99.90;;;;;;5005058;28;20029;-66
2021/05/13 04:04:17;;;;;;;37.78;17.33;;;10.20;99.90;;;;;;5007485;28;20114;-65
2021/05/13 04:06:43;;;;;;;32.47;16.42;;;10.30;99.90;;;;;;5007112;28;20121;-65
2021/05/13 04:09:09;;;;;;;34.08;17.85;;;10.30;99.90;;;;;;5008099;28;20456;-65
2021/05/13 04:11:37;;;;;;;35.65;17.25;;;10.30;99.90;;;;;;5006297;28;20021;-65
2021/05/13 04:14:04;;;;;;;31.33;16.65;;;10.30;99.90;;;;;;5002819;28;20642;-65
2021/05/13 04:16:32;;;;;;;32.22;15.55;;;10.30;99.90;;;;;;5001497;28;20115;-66
2021/05/13 04:18:58;;;;;;;29.40;14.75;;;10.20;99.90;;;;;;5005869;28;20125;-65
2021/05/13 04:21:23;;;;;;;27.60;14.05;;;10.20;99.90;;;;;;5004537;28;20030;-66
2021/05/13 04:23:50;;;;;;;25.58;13.10;;;10.30;99.90;;;;;;5004123;28;20046;-65
2021/05/13 04:26:16;;;;;;;27.88;12.85;;;10.20;99.90;;;;;;5007798;28;20056;-65
2021/05/13 04:28:42;;;;;;;23.30;12.15;;;10.30;99.90;;;;;;5004141;28;20025;-65
2021/05/13 04:31:08;;;;;;;23.02;11.85;;;10.20;99.90;;;;;;5005753;28;20033;-65
2021/05/13 04:33:34;;;;;;;20.88;12.05;;;10.30;99.90;;;;;;5003929;28;20030;-65
2021/05/13 04:36:00;;;;;;;20.23;11.68;;;10.30;99.90;;;;;;5004918;28;20084;-66
2021/05/13 04:38:26;;;;;;;21.80;11.93;;;10.30;99.90;;;;;;5001427;28;20394;-65
2021/05/13 04:40:52;;;;;;;23.23;12.07;;;10.30;99.90;;;;;;5006570;28;20037;-66
2021/05/13 04:43:19;;;;;;;23.25;12.38;;;10.30;99.90;;;;;;5002646;28;20071;-65
2021/05/13 04:45:46;;;;;;;22.95;12.77;;;10.40;99.90;;;;;;5005527;28;20061;-65
2021/05/13 04:48:15;;;;;;;29.25;13.40;;;10.50;99.90;;;;;;5005593;28;20501;-65
2021/05/13 04:50:41;;;;;;;24.67;13.10;;;10.40;99.90;;;;;;5002021;28;20083;-66
2021/05/13 04:53:08;;;;;;;35.95;15.60;;;10.40;99.90;;;;;;5004682;28;20038;-65
2021/05/13 04:55:36;;;;;;;33.90;14.98;;;10.50;99.90;;;;;;5005082;28;20057;-65
2021/05/13 04:58:02;;;;;;;29.25;13.85;;;10.50;99.90;;;;;;5005589;28;20030;-65
2021/05/13 05:00:28;;;;;;;27.95;14.98;;;10.50;99.90;;;;;;5006657;28;20041;-65
2021/05/13 05:02:54;;;;;;;27.33;15.18;;;10.60;99.90;;;;;;5004881;28;20048;-65
2021/05/13 05:05:20;;;;;;;29.17;14.10;;;10.60;99.90;;;;;;5005865;28;20231;-65
2021/05/13 05:07:46;;;;;;;25.50;13.73;;;10.70;99.90;;;;;;5006049;28;20504;-65
2021/05/13 05:10:12;;;;;;;25.48;13.07;;;10.60;99.90;;;;;;5005632;28;20037;-65
2021/05/13 05:12:38;;;;;;;28.15;14.52;;;10.60;99.90;;;;;;5005230;28;20391;-65
2021/05/13 05:15:05;;;;;;;26.38;14.48;;;10.60;99.90;;;;;;5005708;28;20038;-65
2021/05/13 05:17:31;;;;;;;34.25;16.10;;;10.60;99.90;;;;;;5003417;28;20442;-66
2021/05/13 05:19:56;;;;;;;34.28;14.82;;;10.60;99.90;;;;;;5002296;28;20476;-66
2021/05/13 05:22:22;;;;;;;28.88;14.63;;;10.70;99.90;;;;;;5003461;28;20065;-65
2021/05/13 05:24:48;;;;;;;31.88;15.65;;;10.70;99.90;;;;;;5002495;28;20041;-66
2021/05/13 05:27:14;;;;;;;29.50;14.82;;;10.70;99.90;;;;;;5004888;28;20026;-66
2021/05/13 05:29:39;;;;;;;30.17;15.73;;;10.80;99.90;;;;;;5001271;28;20033;-65
2021/05/13 05:32:06;;;;;;;31.48;14.40;;;10.80;99.90;;;;;;5002513;28;20160;-65
2021/05/13 05:34:32;;;;;;;25.90;14.13;;;10.80;99.90;;;;;;5004909;28;20045;-65
2021/05/13 05:36:58;;;;;;;27.75;14.48;;;10.70;99.90;;;;;;5007008;28;20407;-65
2021/05/13 05:39:23;;;;;;;33.30;13.32;;;10.70;99.90;;;;;;5005339;28;20033;-65
2021/05/13 05:41:52;;;;;;;18.88;10.10;;;10.70;99.90;;;;;;5003139;28;20433;-66
2021/05/13 05:44:18;;;;;;;19.00;12.00;;;10.60;99.90;;;;;;5000704;28;20069;-65
2021/05/13 05:46:45;;;;;;;20.10;11.70;;;10.60;99.90;;;;;;5005088;28;20033;-65
2021/05/13 05:49:11;;;;;;;21.23;11.68;;;10.50;99.90;;;;;;5003724;28;20547;-65
2021/05/13 05:51:37;;;;;;;27.08;12.77;;;10.50;99.90;;;;;;5003285;28;20097;-65
2021/05/13 05:54:04;;;;;;;19.27;12.27;;;10.50;99.90;;;;;;5002157;28;20120;-65
2021/05/13 05:56:29;;;;;;;22.08;11.23;;;10.50;99.90;;;;;;5004661;28;20030;-65
2021/05/13 05:58:55;;;;;;;24.73;12.15;;;10.50;99.90;;;;;;5003986;28;20310;-65
2021/05/13 06:01:21;;;;;;;20.13;11.20;;;10.50;99.90;;;;;;5004510;28;20026;-65
2021/05/13 06:03:47;;;;;;;22.08;11.38;;;10.50;99.90;;;;;;5003103;28;20038;-65
2021/05/13 06:06:13;;;;;;;24.45;12.38;;;10.50;99.90;;;;;;5004059;28;20457;-65
2021/05/13 06:08:39;;;;;;;21.85;11.88;;;10.50;99.90;;;;;;5004403;28;20033;-65
2021/05/13 06:11:05;;;;;;;19.20;12.15;;;10.50;99.90;;;;;;5005676;28;20553;-65
2021/05/13 06:13:31;;;;;;;23.70;11.90;;;10.50;99.90;;;;;;5006661;28;20103;-65
2021/05/13 06:15:57;;;;;;;28.52;12.07;;;10.50;99.90;;;;;;5004358;28;20128;-65
2021/05/13 06:18:23;;;;;;;17.48;10.77;;;10.50;99.90;;;;;;5003085;28;20424;-65
2021/05/13 06:20:49;;;;;;;19.30;10.32;;;10.60;99.90;;;;;;5004590;28;20029;-66
2021/05/13 06:23:15;;;;;;;21.50;11.93;;;10.60;99.90;;;;;;5003393;28;20050;-65
2021/05/13 06:25:41;;;;;;;18.95;11.27;;;10.80;99.90;;;;;;5005912;28;20578;-65
2021/05/13 06:28:07;;;;;;;15.13;9.20;;;10.80;99.90;;;;;;5003256;28;20579;-67
2021/05/13 06:30:33;;;;;;;19.23;9.65;;;10.90;99.90;;;;;;5000188;28;20069;-66
2021/05/13 06:32:59;;;;;;;13.35;8.45;;;10.90;99.90;;;;;;5004269;28;20120;-65
2021/05/13 06:35:25;;;;;;;15.20;8.65;;;10.90;99.90;;;;;;5002311;28;20045;-65
2021/05/13 06:37:51;;;;;;;13.48;8.55;;;10.90;99.90;;;;;;5001043;28;20034;-65
2021/05/13 06:40:18;;;;;;;16.08;8.57;;;10.90;99.90;;;;;;5002789;28;20093;-65
2021/05/13 06:42:45;;;;;;;13.25;7.68;;;11.00;99.90;;;;;;5003376;28;20034;-65
2021/05/13 06:45:12;;;;;;;16.65;8.70;;;11.00;99.90;;;;;;5005568;28;20076;-65
2021/05/13 06:47:39;;;;;;;16.80;10.95;;;10.90;99.90;;;;;;5000763;28;20056;-65
2021/05/13 06:50:06;;;;;;;15.23;8.55;;;10.90;99.90;;;;;;5002916;28;20029;-65
2021/05/13 06:52:32;;;;;;;17.33;10.68;;;11.00;99.90;;;;;;5005459;28;20059;-66
2021/05/13 06:54:58;;;;;;;18.35;10.45;;;10.90;99.90;;;;;;5007900;28;20481;-66
2021/05/13 06:57:23;;;;;;;16.88;9.35;;;10.90;99.90;;;;;;5000013;28;20025;-66
2021/05/13 06:59:49;;;;;;;20.40;9.95;;;10.70;99.90;;;;;;5002946;28;20034;-66
2021/05/13 07:02:15;;;;;;;23.58;9.18;;;10.80;99.90;;;;;;5001570;28;20029;-65
2021/05/13 07:04:41;;;;;;;13.23;8.63;;;10.80;99.90;;;;;;5003437;28;20063;-65
2021/05/13 07:07:07;;;;;;;19.15;8.02;;;10.90;99.90;;;;;;5002961;28;20033;-65
2021/05/13 07:09:33;;;;;;;12.18;7.80;;;10.90;99.90;;;;;;5005918;28;20029;-66
2021/05/13 07:11:59;;;;;;;13.75;8.98;;;11.00;99.90;;;;;;5007305;28;20119;-65
2021/05/13 07:14:25;;;;;;;12.70;8.70;;;10.90;99.90;;;;;;5006888;28;20133;-65
2021/05/13 07:16:51;;;;;;;15.02;8.35;;;11.00;99.90;;;;;;5006083;28;20037;-66
2021/05/13 07:19:18;;;;;;;20.23;10.02;;;11.00;99.90;;;;;;5006958;28;20091;-66
2021/05/13 07:21:47;;;;;;;15.02;9.30;;;11.00;99.90;;;;;;5003450;28;20478;-66
2021/05/13 07:24:13;;;;;;;15.80;8.07;;;11.00;99.90;;;;;;5006939;28;20057;-66
2021/05/13 07:26:39;;;;;;;14.60;7.28;;;11.10;99.90;;;;;;5005869;28;20544;-65
2021/05/13 07:29:05;;;;;;;15.73;7.43;;;11.10;99.90;;;;;;5003976;28;20030;-64
2021/05/13 07:31:31;;;;;;;15.20;7.40;;;11.20;99.90;;;;;;5006787;28;20029;-63
2021/05/13 07:33:57;;;;;;;18.63;7.28;;;11.30;99.90;;;;;;5005875;28;20030;-63
2021/05/13 07:36:23;;;;;;;22.23;8.77;;;11.40;99.90;;;;;;5006929;28;20382;-63
2021/05/13 07:38:49;;;;;;;15.80;8.20;;;11.50;99.90;;;;;;5004730;28;20043;-65
2021/05/13 07:41:15;;;;;;;17.65;8.13;;;11.70;99.90;;;;;;5007351;28;20484;-65
2021/05/13 07:43:43;;;;;;;15.13;8.52;;;11.70;99.90;;;;;;5006066;28;20059;-66
2021/05/13 07:46:09;;;;;;;15.02;9.15;;;11.70;99.90;;;;;;5004991;28;20135;-66
2021/05/13 07:48:36;;;;;;;18.90;9.32;;;11.70;99.90;;;;;;5006282;28;20494;-66
2021/05/13 07:51:02;;;;;;;19.95;8.38;;;11.80;99.90;;;;;;5007513;28;20026;-66
2021/05/13 07:53:28;;;;;;;18.75;7.53;;;11.80;99.90;;;;;;5006793;28;20125;-65
2021/05/13 07:55:54;;;;;;;19.55;8.10;;;11.70;99.90;;;;;;5006420;28;20480;-65
2021/05/13 07:58:20;;;;;;;14.30;6.47;;;11.70;99.90;;;;;;5003213;28;20032;-66
2021/05/13 08:00:46;;;;;;;20.23;6.82;;;11.70;99.90;;;;;;5006343;28;20030;-66
2021/05/13 08:03:30;;;;;;;15.63;7.15;;;11.70;99.90;;;;;;5005419;28;20434;-66
2021/05/13 08:05:55;;;;;;;16.25;6.85;;;11.80;99.90;;;;;;5004383;28;20040;-66
2021/05/13 08:08:21;;;;;;;13.65;6.15;;;11.80;99.90;;;;;;5004206;28;20425;-66
2021/05/13 08:10:47;;;;;;;13.43;6.70;;;11.80;99.90;;;;;;5005447;28;20099;-66
2021/05/13 08:13:16;;;;;;;13.50;5.70;;;11.90;99.90;;;;;;5007781;28;20040;-65
2021/05/13 08:15:42;;;;;;;13.73;5.93;;;12.00;99.90;;;;;;5004130;28;20030;-66
2021/05/13 08:18:08;;;;;;;16.92;6.30;;;12.20;99.90;;;;;;5005569;28;20030;-66
2021/05/13 08:20:34;;;;;;;18.73;8.38;;;12.30;99.90;;;;;;5004097;28;20575;-65
2021/05/13 08:23:00;;;;;;;12.52;5.75;;;12.30;99.90;;;;;;5006068;28;20115;-65
2021/05/13 08:25:26;;;;;;;14.35;6.75;;;12.20;99.90;;;;;;5007280;28;20025;-66
2021/05/13 08:27:51;;;;;;;14.45;6.35;;;12.30;99.90;;;;;;5000827;28;20034;-66
2021/05/13 08:30:18;;;;;;;18.88;7.13;;;12.40;99.90;;;;;;5003742;28;20044;-65
2021/05/13 08:32:44;;;;;;;12.38;6.05;;;12.50;99.90;;;;;;5000806;28;20606;-68
2021/05/13 08:35:10;;;;;;;12.23;5.80;;;12.70;99.90;;;;;;5002014;28;20038;-67
2021/05/13 08:37:37;;;;;;;20.30;6.10;;;13.00;99.90;;;;;;5001733;28;20030;-72
2021/05/13 08:40:04;;;;;;;16.95;6.30;;;13.00;99.90;;;;;;5001752;28;20037;-72
2021/05/13 08:42:30;;;;;;;15.65;5.28;;;12.90;99.90;;;;;;5002432;28;20030;-72
2021/05/13 08:44:57;;;;;;;18.67;6.03;;;12.90;99.90;;;;;;5008794;28;20464;-72
2021/05/13 08:47:23;;;;;;;13.13;5.40;;;12.90;99.90;;;;;;5006529;28;20049;-72
2021/05/13 08:49:49;;;;;;;13.82;5.65;;;13.00;99.90;;;;;;5006187;28;20033;-72
2021/05/13 08:52:20;;;;;;;12.32;4.78;;;13.00;99.90;;;;;;5005840;28;20033;-72
2021/05/13 08:54:51;;;;;;;12.43;5.72;;;13.30;99.90;;;;;;5007937;28;20056;-72
2021/05/13 08:57:17;;;;;;;14.68;5.50;;;13.50;99.90;;;;;;5005345;28;20025;-72
2021/05/13 08:59:43;;;;;;;11.57;5.05;;;13.70;99.90;;;;;;5006836;28;20643;-72
2021/05/13 09:02:11;;;;;;;10.65;4.72;;;13.60;99.90;;;;;;5005927;28;20033;-73
2021/05/13 09:04:48;;;;;;;13.13;5.40;;;13.70;99.90;;;;;;5004855;28;20541;-72
2021/05/13 09:07:20;;;;;;;16.00;5.30;;;13.70;99.90;;;;;;5006365;28;20033;-72
2021/05/13 09:10:08;;;;;;;15.25;5.25;;;13.60;99.90;;;;;;5005851;28;20030;-72
2021/05/13 09:12:41;;;;;;;16.33;5.85;;;13.40;99.90;;;;;;5004717;28;20058;-72
2021/05/13 09:15:07;;;;;;;14.48;6.18;;;13.40;99.90;;;;;;5008155;28;20550;-72
2021/05/13 09:17:34;;;;;;;14.48;5.93;;;13.30;99.90;;;;;;5003890;28;20036;-72
2021/05/13 09:20:00;;;;;;;14.25;5.82;;;13.20;99.90;;;;;;5007238;28;20144;-72
2021/05/13 09:22:28;;;;;;;12.52;5.10;;;13.30;99.90;;;;;;5005699;28;22477;-72
2021/05/13 09:25:07;;;;;;;15.02;4.97;;;13.20;99.90;;;;;;5012749;28;20477;-72
2021/05/13 09:27:43;;;;;;;18.27;6.30;;;13.10;99.90;;;;;;5005593;28;20041;-72
2021/05/13 09:30:18;;;;;;;16.65;6.30;;;13.00;99.90;;;;;;5006415;28;20072;-72
2021/05/13 09:32:55;;;;;;;12.25;5.45;;;13.00;99.90;;;;;;5003605;28;20038;-70
2021/05/13 09:35:24;;;;;;;15.68;6.25;;;13.00;99.90;;;;;;5007503;28;20513;-70
2021/05/13 09:37:53;;;;;;;16.58;6.60;;;13.00;99.90;;;;;;5005507;28;20039;-70
2021/05/13 09:40:32;;;;;;;18.87;7.00;;;12.90;99.90;;;;;;5008350;28;20029;-69
2021/05/13 09:43:14;;;;;;;19.60;7.33;;;12.70;99.90;;;;;;5006581;28;20029;-69
2021/05/13 09:45:50;;;;;;;19.13;7.05;;;12.60;99.90;;;;;;5003427;28;20919;-70
2021/05/13 09:48:39;;;;;;;22.70;7.22;;;12.50;99.90;;;;;;5005420;28;20037;-69
2021/05/13 09:51:25;;;;;;;24.35;8.63;;;12.50;99.90;;;;;;5006339;28;20036;-70
2021/05/13 09:54:17;;;;;;;16.15;6.22;;;12.50;99.90;;;;;;5006689;28;20464;-70
2021/05/13 09:56:54;;;;;;;19.92;7.05;;;12.60;99.90;;;;;;5003846;28;20022;-71
2021/05/13 09:59:26;;;;;;;17.55;7.25;;;12.60;99.90;;;;;;5005506;28;20486;-71
2021/05/13 10:01:54;;;;;;;12.90;6.57;;;12.70;99.90;;;;;;5002086;28;20450;-70
2021/05/13 10:04:20;;;;;;;14.18;6.72;;;12.70;99.90;;;;;;5003575;28;20061;-71
2021/05/13 10:06:46;;;;;;;18.60;8.07;;;12.80;99.90;;;;;;5005108;28;20030;-71
2021/05/13 10:09:14;;;;;;;18.02;7.30;;;12.80;99.90;;;;;;5003881;28;20045;-71
2021/05/13 10:11:42;;;;;;;15.38;6.75;;;12.60;99.90;;;;;;5001688;28;20029;-71
2021/05/13 10:14:09;;;;;;;15.88;6.20;;;12.50;99.90;;;;;;5002170;28;20481;-71
2021/05/13 10:16:35;;;;;;;20.30;5.57;;;12.50;99.90;;;;;;5005288;28;20045;-71
2021/05/13 10:19:08;;;;;;;13.35;6.10;;;12.50;99.90;;;;;;5002022;28;20036;-71
2021/05/13 10:21:36;;;;;;;14.02;5.97;;;12.50;99.90;;;;;;5005360;28;20688;-71
2021/05/13 10:24:03;;;;;;;15.82;6.18;;;12.40;99.90;;;;;;5002615;28;20156;-72
2021/05/13 10:26:41;;;;;;;15.65;7.07;;;12.40;99.90;;;;;;5005139;28;20034;-71
2021/05/13 10:29:20;;;;;;;13.88;5.95;;;12.50;99.90;;;;;;5004919;28;20516;-72
2021/05/13 10:32:12;;;;;;;12.35;5.38;;;12.60;99.90;;;;;;5004025;28;20034;-72
2021/05/13 10:34:40;;;;;;;14.55;5.35;;;12.80;99.90;;;;;;5007222;28;20061;-71
2021/05/13 10:37:17;;;;;;;17.58;6.03;;;12.70;99.90;;;;;;5005255;28;20034;-71
2021/05/13 10:40:13;;;;;;;18.90;7.47;;;12.70;99.90;;;;;;5001948;28;20088;-72
2021/05/13 10:42:41;;;;;;;13.57;6.82;;;12.70;99.90;;;;;;5002840;28;20532;-72
2021/05/13 10:45:25;;;;;;;16.02;6.20;;;12.80;99.90;;;;;;5011199;28;20026;-72
2021/05/13 10:48:14;;;;;;;19.10;7.00;;;12.80;99.90;;;;;;5001426;28;20029;-71
2021/05/13 10:50:49;;;;;;;14.80;6.05;;;12.80;99.90;;;;;;5003354;28;20029;-71
2021/05/13 10:53:33;;;;;;;16.20;7.05;;;12.90;99.90;;;;;;5007060;28;20393;-71
2021/05/13 10:56:16;;;;;;;17.38;7.30;;;12.90;99.90;;;;;;5007370;28;20375;-71
2021/05/13 10:59:03;;;;;;;21.33;8.25;;;13.00;99.90;;;;;;5006994;28;20201;-71
2021/05/13 11:01:46;;;;;;;21.42;7.75;;;13.00;99.90;;;;;;5009717;28;20519;-71
2021/05/13 11:04:21;;;;;;;25.67;8.30;;;13.20;99.90;;;;;;5002325;28;20881;-71
2021/05/13 11:06:50;;;;;;;24.45;8.32;;;13.40;99.90;;;;;;4997862;28;20091;-71
2021/05/13 11:09:42;;;;;;;24.90;8.68;;;13.40;99.90;;;;;;5004446;28;20450;-71
2021/05/13 11:12:16;;;;;;;25.40;8.38;;;13.30;99.90;;;;;;5006793;28;20064;-72
2021/05/13 11:18:03;;;;;;;21.13;7.78;;;13.20;99.90;;;;;;5006560;28;20026;-72
2021/05/13 11:20:49;;;;;;;23.80;8.23;;;13.20;99.90;;;;;;5004319;28;20077;-72
2021/05/13 11:23:19;;;;;;;28.63;8.40;;;13.20;99.90;;;;;;5004862;28;20050;-72
2021/05/13 11:25:49;;;;;;;19.65;7.63;;;13.10;99.90;;;;;;5003034;28;20025;-72
2021/05/13 11:28:23;;;;;;;25.50;9.02;;;13.10;99.90;;;;;;5005493;28;20045;-72
2021/05/13 11:30:54;;;;;;;23.23;9.10;;;13.10;99.90;;;;;;5006081;28;20041;-71
2021/05/13 11:33:21;;;;;;;25.02;8.15;;;13.20;99.90;;;;;;5006965;28;20089;-71
2021/05/13 11:35:47;;;;;;;19.20;8.02;;;13.20;99.90;;;;;;4999532;28;20120;-72
2021/05/13 11:38:23;;;;;;;21.90;8.63;;;13.20;99.90;;;;;;5005342;28;20064;-72
2021/05/13 11:40:53;;;;;;;32.25;9.02;;;13.20;99.90;;;;;;5004149;28;20048;-72
2021/05/13 11:43:24;;;;;;;26.45;7.90;;;13.20;99.90;;;;;;5001805;28;20108;-71
2021/05/13 11:45:53;;;;;;;24.33;8.00;;;13.20;99.90;;;;;;5008732;28;20099;-72
2021/05/13 11:48:19;;;;;;;31.77;9.27;;;13.20;99.90;;;;;;5006634;28;20037;-77
2021/05/13 11:50:45;;;;;;;23.83;9.63;;;13.20;99.90;;;;;;5008383;28;20041;-77
2021/05/13 11:53:14;;;;;;;29.23;9.30;;;13.10;99.90;;;;;;5007232;28;20119;-77
2021/05/13 11:55:41;;;;;;;23.58;9.57;;;12.90;99.90;;;;;;5005925;28;20049;-76
2021/05/13 11:58:11;;;;;;;28.65;9.95;;;12.90;99.90;;;;;;5009338;28;20386;-77
2021/05/13 12:00:37;;;;;;;19.80;8.63;;;12.90;99.90;;;;;;5007819;28;20098;-77
2021/05/13 12:03:17;;;;;;;22.55;9.48;;;13.10;99.90;;;;;;5006801;28;20576;-78
2021/05/13 12:05:50;;;;;;;18.95;7.30;;;13.20;99.90;;;;;;5007987;28;20178;-77
2021/05/13 12:08:18;;;;;;;19.17;7.82;;;13.30;99.90;;;;;;5004899;28;20104;-77
2021/05/13 12:10:44;;;;;;;15.05;7.13;;;13.30;99.90;;;;;;5009797;28;20489;-77
2021/05/13 12:13:10;;;;;;;16.70;7.63;;;13.30;99.90;;;;;;5006287;28;20455;-78
2021/05/13 12:15:36;;;;;;;13.55;6.45;;;13.20;99.90;;;;;;5007736;28;20044;-77
2021/05/13 12:18:02;;;;;;;14.48;7.80;;;13.10;99.90;;;;;;5007132;28;20033;-76
2021/05/13 12:20:28;;;;;;;16.42;7.53;;;13.00;99.90;;;;;;5006264;28;20060;-72
2021/05/13 12:22:54;;;;;;;10.60;6.85;;;12.90;99.90;;;;;;5004778;28;20556;-72
2021/05/13 12:25:20;;;;;;;13.32;7.25;;;13.00;99.90;;;;;;5005013;28;20390;-72
2021/05/13 12:27:46;;;;;;;13.70;7.15;;;12.90;99.90;;;;;;5003706;28;20025;-72
2021/05/13 12:30:13;;;;;;;12.40;6.57;;;12.80;99.90;;;;;;4989179;28;20029;-72
2021/05/13 12:32:38;;;;;;;10.57;7.35;;;12.80;99.90;;;;;;5005299;28;20497;-72
2021/05/13 12:35:47;;;;;;;11.90;6.90;;;12.80;99.90;;;;;;5003792;28;20087;-72
2021/05/13 12:38:17;;;;;;;18.35;8.52;;;12.90;99.90;;;;;;5002369;28;20172;-73
2021/05/13 12:40:44;;;;;;;10.02;6.85;;;12.80;99.90;;;;;;5005909;28;20042;-72
2021/05/13 12:43:19;;;;;;;10.35;6.88;;;12.70;99.90;;;;;;5006957;28;20065;-73
2021/05/13 12:45:47;;;;;;;10.20;5.95;;;12.60;99.90;;;;;;5007891;28;20021;-72